map of HFN home
HFN - Airport
Location
City:  Höfn, Iceland
Name:Hornafjörður
ICAO:BIHN
IATA:HFN

Details
Type:Airport (Aerodrome, Airfield)
Latitude:64°17'44"N (64.295556)
Longitude:15°13'38"W (-15.227221)
Elevation:24 ft (7 m)
Variation:9.98°W (WMM2015 magnetic declination)
0.25° annual change
Runways:1
Longest:4921 × 148 ft (1500 × 45 m), paved

Time
Time Zone:UTC+0
Local Time:

Weather
METAR:BIHN 121900Z 11008KT 9999 BR FEW015 FEW025 OVC050 05/04 Q1007

Related Locations
Nearby:
Farthest:NZTB: 11710 mi / 18845 km
Terra Nova Bay [Mario Zucchelli Station], AQ

Find:

   beyond  
but within

Other Information
Maps:
NOTAMs:
Links:
Sources:

  
  • flag of Iceland
  

Sectional Chart

Flight Planning
at skyvector.com

Satellite Image

Google Maps Satellite view

 

Copyright © 2004-2018 Karl L. Swartz. All rights reserved.
The Great Circle Mapper name and logo are trademarks of the Great Circle Mapper.
All other trademarks mentioned herein belong to their respective owners.
Please see credits for attibutions and further copyright information.

  Follow gcmap on Facebook Follow gcmap on Twitter Follow gcmap on Google+ GCmap on LinkedIn

hCard Microformat

Geo Microformat